createdAt,value
2019-02-04T00:01:47.862Z,-0.85
2019-02-04T00:06:49.546Z,-0.86
2019-02-04T00:11:51.105Z,-0.85
2019-02-04T00:16:53.047Z,-0.84
2019-02-04T00:21:54.658Z,-0.86
2019-02-04T00:26:56.440Z,-0.86
2019-02-04T00:31:58.198Z,-0.86
2019-02-04T00:37:01.627Z,-0.88
2019-02-04T00:42:03.293Z,-0.89
2019-02-04T00:47:04.964Z,-0.89
2019-02-04T00:52:06.747Z,-0.89
2019-02-04T00:57:08.335Z,-0.92
2019-02-04T01:02:09.973Z,-0.92
2019-02-04T01:07:11.636Z,-0.93
2019-02-04T01:12:13.258Z,-0.93
2019-02-04T01:17:14.805Z,-0.94
2019-02-04T01:22:16.380Z,-0.96
2019-02-04T01:27:17.960Z,-0.95
2019-02-04T01:32:21.015Z,-0.94
2019-02-04T01:37:22.990Z,-0.98
2019-02-04T01:42:24.551Z,-1.00
2019-02-04T01:47:26.185Z,-1.03
2019-02-04T01:52:28.081Z,-1.04
2019-02-04T01:57:29.744Z,-1.05
2019-02-04T02:02:31.331Z,-1.07
2019-02-04T02:07:32.987Z,-1.09
2019-02-04T02:12:34.523Z,-1.13
2019-02-04T02:17:36.764Z,-1.14
2019-02-04T02:22:38.643Z,-1.17
2019-02-04T02:27:40.174Z,-1.18
2019-02-04T02:32:41.839Z,-1.19
2019-02-04T02:37:43.439Z,-1.22
2019-02-04T02:42:45.431Z,-1.25
2019-02-04T02:47:48.587Z,-1.27
2019-02-04T02:52:50.142Z,-1.29
2019-02-04T02:57:51.768Z,-1.31
2019-02-04T03:02:53.353Z,-1.35
2019-02-04T03:07:55.374Z,-1.37
2019-02-04T03:12:57.064Z,-1.36
2019-02-04T03:17:59.327Z,-1.35
2019-02-04T03:23:00.889Z,-1.34
2019-02-04T03:28:02.396Z,-1.34
2019-02-04T03:33:04.452Z,-1.33
2019-02-04T03:38:11.065Z,-1.33
2019-02-04T03:43:12.606Z,-1.33
2019-02-04T03:48:14.214Z,-1.31
2019-02-04T03:53:15.747Z,-1.32
2019-02-04T03:58:17.309Z,-1.27
2019-02-04T04:03:18.926Z,-1.26
2019-02-04T04:08:20.464Z,-1.26
2019-02-04T04:13:22.021Z,-1.26
2019-02-04T04:18:23.628Z,-1.31
2019-02-04T04:23:26.857Z,-1.29
2019-02-04T04:28:28.390Z,-1.31
2019-02-04T04:33:30.325Z,-1.29
2019-02-04T04:38:31.892Z,-1.27
2019-02-04T04:43:33.471Z,-1.24
2019-02-04T04:48:35.014Z,-1.20
2019-02-04T04:53:36.567Z,-1.16
2019-02-04T04:58:40.694Z,-1.16
2019-02-04T05:03:41.879Z,-1.11
2019-02-04T05:08:43.647Z,-1.12
2019-02-04T05:13:45.521Z,-1.08
2019-02-04T05:18:47.882Z,-1.06
2019-02-04T05:23:49.452Z,-1.04
2019-02-04T05:28:51.061Z,-1.00
2019-02-04T05:33:52.986Z,-0.97
2019-02-04T05:38:54.865Z,-0.94
2019-02-04T05:43:56.399Z,-0.91
2019-02-04T05:48:57.953Z,-0.85
2019-02-04T05:53:59.483Z,-0.81
2019-02-04T05:59:01.579Z,-0.77
2019-02-04T06:04:03.282Z,-0.74
2019-02-04T06:09:06.496Z,-0.71
2019-02-04T06:14:08.074Z,-0.69
2019-02-04T06:19:10.033Z,-0.67
2019-02-04T06:24:12.681Z,-0.62
2019-02-04T06:29:14.227Z,-0.60
2019-02-04T06:34:15.915Z,-0.58
2019-02-04T06:39:17.498Z,-0.54
2019-02-04T06:44:19.137Z,-0.50
2019-02-04T06:49:20.747Z,-0.49
2019-02-04T06:54:22.667Z,-0.46
2019-02-04T06:59:24.507Z,-0.46
2019-02-04T07:04:26.382Z,-0.45
2019-02-04T07:09:27.942Z,-0.43
2019-02-04T07:14:29.924Z,-0.40
2019-02-04T07:19:31.452Z,-0.35
2019-02-04T07:24:42.457Z,-0.31
2019-02-04T07:29:36.554Z,-0.29
2019-02-04T07:34:38.158Z,-0.25
2019-02-04T07:39:39.744Z,-0.12
2019-02-04T07:44:41.484Z,-0.11
2019-02-04T07:49:43.072Z,-0.04
2019-02-04T07:54:44.656Z,0.05
2019-02-04T07:59:46.208Z,0.15
2019-02-04T08:04:47.871Z,0.21
2019-02-04T08:09:49.801Z,0.29
2019-02-04T08:14:51.456Z,0.36
2019-02-04T08:19:53.202Z,0.45
2019-02-04T08:24:54.706Z,0.55
2019-02-04T08:29:56.514Z,0.60
2019-02-04T08:34:58.275Z,0.63
2019-02-04T08:40:00.051Z,0.69
2019-02-04T08:45:01.951Z,0.74
2019-02-04T08:50:04.663Z,0.80
2019-02-04T08:55:07.058Z,0.89
2019-02-04T09:00:11.033Z,1.01
2019-02-04T09:05:14.933Z,1.14
2019-02-04T09:10:22.418Z,1.26
2019-02-04T09:15:25.312Z,1.39
2019-02-04T09:20:26.920Z,1.49
2019-02-04T09:25:29.700Z,1.60
2019-02-04T09:30:31.998Z,1.74
2019-02-04T09:35:33.567Z,1.86
2019-02-04T09:40:39.344Z,1.97
2019-02-04T09:45:42.709Z,2.07
2019-02-04T09:50:47.393Z,2.22
2019-02-04T09:55:49.025Z,2.34
2019-02-04T10:00:53.434Z,2.36
2019-02-04T10:05:55.034Z,2.39
2019-02-04T10:10:56.629Z,2.44
2019-02-04T10:15:58.342Z,2.52
2019-02-04T10:21:00.644Z,2.59
2019-02-04T10:26:02.437Z,2.68
2019-02-04T10:31:04.027Z,2.82
2019-02-04T10:36:05.642Z,2.86
2019-02-04T10:41:07.203Z,2.94
2019-02-04T10:46:09.016Z,3.01
2019-02-04T10:51:10.702Z,2.99
2019-02-04T10:56:12.336Z,2.96
2019-02-04T11:01:14.942Z,2.95
2019-02-04T11:06:17.949Z,2.98
2019-02-04T11:11:19.996Z,3.03
2019-02-04T11:16:21.555Z,3.05
2019-02-04T11:21:24.468Z,3.14
2019-02-04T11:26:26.053Z,3.19
2019-02-04T11:31:27.612Z,3.26
2019-02-04T11:36:29.159Z,3.26
2019-02-04T11:41:31.138Z,3.31
2019-02-04T11:46:36.193Z,3.33
2019-02-04T11:51:37.845Z,3.37
2019-02-04T11:56:39.391Z,3.46
2019-02-04T12:01:40.949Z,3.56
2019-02-04T12:06:42.537Z,3.53
2019-02-04T12:11:44.185Z,3.48
2019-02-04T12:16:45.885Z,3.44
2019-02-04T12:21:47.467Z,3.33
2019-02-04T12:26:51.098Z,3.24
2019-02-04T12:31:52.659Z,3.16
2019-02-04T12:36:54.373Z,3.10
2019-02-04T12:41:57.149Z,3.06
2019-02-04T12:46:58.747Z,3.05
2019-02-04T12:52:00.341Z,3.11
2019-02-04T12:57:02.926Z,2.98
2019-02-04T13:02:05.685Z,3.00
2019-02-04T13:07:07.594Z,3.00
2019-02-04T13:12:11.220Z,2.95
2019-02-04T13:17:13.031Z,2.94
2019-02-04T13:22:16.373Z,2.98
2019-02-04T13:27:17.933Z,3.04
2019-02-04T13:32:19.759Z,3.03
2019-02-04T13:37:21.363Z,3.03
2019-02-04T13:42:22.941Z,3.01
2019-02-04T13:47:24.725Z,2.94
2019-02-04T13:52:26.348Z,2.88
2019-02-04T13:57:29.020Z,2.85
2019-02-04T14:02:32.679Z,2.85
2019-02-04T14:07:34.253Z,2.90
2019-02-04T14:12:35.845Z,2.85
2019-02-04T14:17:37.420Z,2.81
2019-02-04T14:22:39.217Z,2.78
2019-02-04T14:27:43.362Z,2.76
2019-02-04T14:32:45.092Z,2.74
2019-02-04T14:37:47.063Z,2.72
2019-02-04T14:42:51.974Z,2.73
2019-02-04T14:48:06.094Z,2.74
2019-02-04T14:53:51.602Z,2.73
2019-02-04T14:59:10.037Z,2.80
2019-02-04T15:04:29.521Z,2.73
2019-02-04T15:09:53.692Z,2.69
2019-02-04T15:15:25.470Z,2.68
2019-02-04T15:20:55.567Z,2.59
2019-02-04T15:26:28.971Z,2.55
2019-02-04T15:32:29.376Z,2.51
2019-02-04T15:37:53.470Z,2.49
2019-02-04T15:43:16.680Z,2.48
2019-02-04T15:48:22.961Z,2.47
2019-02-04T15:53:24.991Z,2.41
2019-02-04T15:58:26.659Z,2.36
2019-02-04T16:03:28.292Z,2.31
2019-02-04T16:08:29.944Z,2.28
2019-02-04T16:13:33.411Z,2.26
2019-02-04T16:18:35.819Z,2.23
2019-02-04T16:23:37.379Z,2.21
2019-02-04T16:28:38.992Z,2.17
2019-02-04T16:33:40.736Z,2.14
2019-02-04T16:38:42.461Z,2.12
2019-02-04T16:43:44.478Z,2.11
2019-02-04T16:48:46.552Z,2.10
2019-02-04T16:53:48.424Z,2.17
2019-02-04T16:58:50.014Z,2.09
2019-02-04T17:03:52.791Z,2.12
2019-02-04T17:08:56.259Z,2.12
2019-02-04T17:13:58.253Z,2.13
2019-02-04T17:18:59.925Z,2.10
2019-02-04T17:24:02.885Z,2.12
2019-02-04T17:29:04.494Z,2.10
2019-02-04T17:34:06.152Z,2.15
2019-02-04T17:39:07.780Z,2.16
2019-02-04T17:44:10.151Z,2.14
2019-02-04T17:49:11.901Z,2.16
2019-02-04T17:54:13.822Z,2.14
2019-02-04T17:59:15.819Z,2.14
2019-02-04T18:04:17.338Z,2.16
2019-02-04T18:09:19.342Z,2.17
2019-02-04T18:14:21.012Z,2.19
2019-02-04T18:19:22.675Z,2.19
2019-02-04T18:24:25.437Z,2.18
2019-02-04T18:29:27.677Z,2.17
2019-02-04T18:34:29.655Z,2.18
2019-02-04T18:39:31.324Z,2.19
2019-02-04T18:44:33.477Z,2.21
2019-02-04T18:49:35.123Z,2.21
2019-02-04T18:54:38.920Z,2.23
2019-02-04T18:59:40.471Z,2.22
2019-02-04T19:04:42.263Z,2.24
2019-02-04T19:09:44.004Z,2.23
2019-02-04T19:14:46.252Z,2.23
2019-02-04T19:19:48.610Z,2.25
2019-02-04T19:24:50.146Z,2.26
2019-02-04T19:29:51.719Z,2.29
2019-02-04T19:34:53.332Z,2.29
2019-02-04T19:39:56.201Z,2.29
2019-02-04T19:44:58.160Z,2.32
2019-02-04T19:50:00.735Z,2.30
2019-02-04T19:55:02.926Z,2.30
2019-02-04T20:00:07.844Z,2.28
2019-02-04T20:05:10.357Z,2.31
2019-02-04T20:10:14.451Z,2.33
2019-02-04T20:15:21.882Z,2.32
2019-02-04T20:20:23.788Z,2.35
2019-02-04T20:25:26.960Z,2.35
2019-02-04T20:30:30.805Z,2.35
2019-02-04T20:35:32.586Z,2.38
2019-02-04T20:40:34.402Z,2.39
2019-02-04T20:45:36.658Z,2.39
2019-02-04T20:50:39.843Z,2.38
2019-02-04T20:55:44.538Z,2.39
2019-02-04T21:00:46.282Z,2.41
2019-02-04T21:05:48.283Z,2.39
2019-02-04T21:10:50.071Z,2.45
2019-02-04T21:15:52.404Z,2.46
2019-02-04T21:20:56.141Z,2.47
2019-02-04T21:25:57.870Z,2.47
2019-02-04T21:30:59.467Z,2.53
2019-02-04T21:36:01.185Z,2.52
2019-02-04T21:41:04.527Z,2.52
2019-02-04T21:46:06.732Z,2.53
2019-02-04T21:51:08.482Z,2.53
2019-02-04T21:56:10.393Z,2.54
2019-02-04T22:01:11.989Z,2.58
2019-02-04T22:06:13.557Z,2.59
2019-02-04T22:11:15.288Z,2.63
2019-02-04T22:16:18.954Z,2.65
2019-02-04T22:21:20.993Z,2.65
2019-02-04T22:26:22.617Z,2.68
2019-02-04T22:31:24.421Z,2.70
2019-02-04T22:36:25.979Z,2.72
2019-02-04T22:41:27.612Z,2.70
2019-02-04T22:46:30.042Z,2.71
2019-02-04T22:51:31.774Z,2.74
2019-02-04T22:56:34.412Z,2.76
2019-02-04T23:01:48.093Z,2.77
2019-02-04T23:06:51.733Z,2.80
2019-02-04T23:11:53.291Z,2.82
2019-02-04T23:16:55.008Z,2.79
2019-02-04T23:21:56.559Z,2.82
2019-02-04T23:26:58.199Z,2.84
2019-02-04T23:31:59.772Z,2.81
2019-02-04T23:37:01.457Z,2.80
2019-02-04T23:42:03.026Z,2.81
2019-02-04T23:47:05.363Z,2.82
2019-02-04T23:52:08.767Z,2.83
2019-02-04T23:57:10.303Z,2.85
